Aérodrome :
LOGIN :

S'inscrire | Disclaimer

   EN    FR    IT 

 










Légende :    VFR   VFR Marginal   IFR   IFR Intensif   IFR Très Intensif
Visi : 
Plafond : 
>= 8 km
>= 3000ft
5 à 8 km
1000 à 3000 ft
1500m à 5 km
500 à 1000 ft
800 à 1500m
200 à 500 ft
< 800m
< 200 ft
Symboles :   Orages  Brouillard  Fortes neiges  Fortes précipitations  Vent > 20 kt
SIGMETs :   Divers  Orages  Givrage  Turbulence  Onde Orograph.  Cendres Volcan.






- Altitude de l'aérodrome : 1521 ft
- Code IATA : NCY


LFLP - Annecy

DERNIER METAR :
  • 271430Z AUTO 16010KT 130V190 9999 -RA FEW017 OVC029 03/02 Q1005 TEMPO VRB15G25KT 4000 SHRA SCT018TCU

METARs EXPIRÉS :
  • 271400Z AUTO 15011KT 7000 -RA FEW020 OVC027 03/02 Q1005 TEMPO 4000 RA BECMG 22012KT
  • 271330Z AUTO 16009KT 7000 -RA FEW019 OVC026 02/01 Q1005 TEMPO 4000 RA BECMG 22012KT
  • 271300Z AUTO 16008KT 130V190 9000 -RA SCT014 OVC028 02/01 Q1005 TEMPO 4000 RA BKN008
  • 271230Z AUTO 16009KT 130V190 5000 -SNRA BR BKN012 OVC025 02/01 Q1006 TEMPO RA BECMG BKN020
  • 271200Z AUTO 17011KT 140V200 5000 -SNRA BR OVC010 02/01 Q1006 TEMPO RA BECMG BKN020

TAF TAF LFLP
Valide du 27 à 15h jusqu'au 28 à 15h UTC


271400Z 2715/2815 21010KT 9999 BKN025
TEMPO 2715/2721 VRB15G25KT 4000 SHRA SCT018TCU
BECMG 2717/2719 30010KT
BECMG 2801/2803 VRB02KT CAVOK



MET'MAP, la Météo Aéronautique d'un coup d'oeil ! - Copyright ORBIFLY Décembre 2007 - Disclaimer

ORBIFLY MET'MAP TEAM :

Programmation & Développement : Alexandra Zaïnal
Sur une idée originale de : Baudouin d'Aumeries
Assistance à la programmation : Marc-Olivier Méhu
Soutien technique & logistique : Manuel Goepfert

Contact : metmap@orbifly.com




SOURCES & CREDITS :

   NOAA